Time;durP1;ratioP1;P1;durP2;ratioP2;P2;SDS_P1;SDS_P2;PMS_P1;PMS_P2;Temp;Humidity;BMP_temperature;BMP_pressure;BME280_temperature;BME280_humidity;BME280_pressure;Samples;Min_cycle;Max_cycle;Signal;HPM_P1;HPM_P2
2021/08/05 00:02:09;;;;;;;29.07;14.93;;;;;;;25.93;73.68;101352.84;1739952;78;20318;-73
2021/08/05 00:04:42;;;;;;;23.12;14.23;;;;;;;25.96;73.79;101354.41;1731401;83;21363;-73
2021/08/05 00:07:14;;;;;;;22.80;13.50;;;;;;;26.01;73.62;101348.50;1731399;81;21379;-74
2021/08/05 00:09:47;;;;;;;32.17;13.75;;;;;;;26.04;73.53;101344.95;1731376;83;21233;-75
2021/08/05 00:12:20;;;;;;;27.48;12.82;;;;;;;26.01;73.59;101348.50;1729104;83;21881;-74
2021/08/05 00:14:52;;;;;;;28.52;13.85;;;;;;;25.99;73.55;101350.03;1727774;83;21323;-74
2021/08/05 00:17:25;;;;;;;23.70;13.23;;;;;;;25.95;73.69;101354.74;1729306;83;21181;-74
2021/08/05 00:19:58;;;;;;;27.00;13.65;;;;;;;25.91;73.70;101361.73;1731527;81;21354;-74
2021/08/05 00:22:30;;;;;;;31.85;14.23;;;;;;;25.89;73.76;101358.95;1730564;83;21375;-73
2021/08/05 00:25:03;;;;;;;23.10;13.07;;;;;;;25.86;73.89;101360.50;1731514;83;21217;-73
2021/08/05 00:27:35;;;;;;;22.42;14.30;;;;;;;25.88;74.03;101352.44;1731401;83;21371;-73
2021/08/05 00:30:10;;;;;;;25.72;14.07;;;;;;;25.92;74.03;101341.22;1708637;83;21241;-74
2021/08/05 00:32:43;;;;;;;25.92;13.40;;;;;;;25.92;73.89;101344.06;1700863;84;21335;-73
2021/08/05 00:35:15;;;;;;;25.00;13.15;;;;;;;25.90;74.00;101343.59;1704051;83;21336;-72
2021/08/05 00:37:48;;;;;;;29.25;13.22;;;;;;;25.92;74.09;101338.37;1731640;83;21323;-76
2021/08/05 00:40:22;;;;;;;27.48;14.25;;;;;;;25.91;73.98;101341.80;1729102;83;21339;-74
2021/08/05 00:42:55;;;;;;;29.65;14.30;;;;;;;25.91;74.06;101343.22;1730921;81;21245;-75
2021/08/05 00:45:28;;;;;;;34.20;13.72;;;;;;;25.94;74.02;101348.81;1718413;83;21342;-75
2021/08/05 00:48:01;;;;;;;26.50;13.93;;;;;;;25.93;74.05;101338.03;1715268;83;21332;-76
2021/08/05 00:50:34;;;;;;;23.92;13.22;;;;;;;25.94;74.07;101337.42;1703791;83;21368;-77
2021/08/05 00:53:08;;;;;;;32.83;13.88;;;;;;;25.96;74.14;101335.09;1728475;83;21695;-75
2021/08/05 00:55:40;;;;;;;31.20;13.60;;;;;;;25.98;74.13;101328.44;1731418;81;21375;-75
2021/08/05 00:58:13;;;;;;;25.37;13.40;;;;;;;26.02;73.99;101323.12;1729555;83;21177;-75
2021/08/05 01:00:51;;;;;;;20.70;13.03;;;;;;;26.04;74.03;101322.78;1731522;81;21204;-75
2021/08/05 01:03:35;;;;;;;23.12;13.53;;;;;;;26.02;73.98;101321.69;1731065;81;21170;-76
2021/08/05 01:06:32;;;;;;;;;;;;;;;26.00;74.02;101319.80;1733417;81;21240;-76
2021/08/05 01:09:49;;;;;;;24.65;12.47;;;;;;;25.98;74.09;101313.59;1722711;82;20646;-74
2021/08/05 01:12:40;;;;;;;28.02;14.05;;;;;;;25.93;74.09;101317.25;1716616;82;21259;-74
2021/08/05 01:15:25;;;;;;;23.60;12.85;;;;;;;25.91;74.25;101307.63;1727206;82;21257;-75
2021/08/05 01:18:15;;;;;;;22.87;13.72;;;;;;;25.95;74.20;101307.77;1694010;83;21191;-75
2021/08/05 01:20:50;;;;;;;28.62;16.12;;;;;;;25.95;74.30;101300.07;1693672;83;21181;-72
2021/08/05 01:23:52;;;;;;;24.80;14.95;;;;;;;25.97;74.38;101291.19;1717741;82;21346;-71
2021/08/05 01:26:33;;;;;;;24.23;13.88;;;;;;;25.98;74.22;101286.55;1717363;83;21335;-71
2021/08/05 01:29:06;;;;;;;21.93;13.70;;;;;;;25.94;74.24;101282.75;1718408;83;21392;-71
2021/08/05 01:31:41;;;;;;;29.50;13.80;;;;;;;25.91;74.34;101283.43;1717489;83;21343;-71
2021/08/05 01:34:14;;;;;;;20.35;13.58;;;;;;;25.92;74.31;101287.13;1727187;79;21363;-73
2021/08/05 01:36:47;;;;;;;;;;;;;;;25.92;74.31;101280.82;1720582;83;21218;-71
2021/08/05 01:39:19;;;;;;;29.42;15.80;;;;;;;25.95;74.33;101280.14;1720996;82;20260;-72
2021/08/05 01:41:52;;;;;;;22.80;14.87;;;;;;;25.94;74.43;101282.75;1723793;82;21178;-74
2021/08/05 01:44:26;;;;;;;25.82;14.60;;;;;;;25.93;74.43;101279.66;1745991;82;21768;-73
2021/08/05 01:46:58;;;;;;;;;;;;;;;25.94;74.50;101278.48;1750147;82;21396;-73
2021/08/05 01:49:30;;;;;;;23.40;15.72;;;;;;;25.95;74.50;101270.17;1731257;82;20256;-73
2021/08/05 01:52:03;;;;;;;22.53;15.70;;;;;;;25.97;74.50;101270.65;1739013;82;21854;-71
2021/08/05 01:54:36;;;;;;;24.12;14.63;;;;;;;25.91;74.39;101269.20;1743088;82;21234;-71
2021/08/05 01:57:14;;;;;;;20.57;14.05;;;;;;;25.82;74.64;101269.00;1720113;82;21202;-73
2021/08/05 01:59:47;;;;;;;27.60;14.93;;;;;;;25.77;74.75;101270.63;1726729;82;21183;-71
2021/08/05 02:02:19;;;;;;;;;;;;;;;25.75;75.04;101270.16;1698737;82;21195;-73
2021/08/05 02:05:07;;;;;;;29.55;14.75;;;;;;;25.74;75.17;101278.45;1741959;82;20192;-73
2021/08/05 02:07:57;;;;;;;35.83;15.30;;;;;;;25.73;75.15;101279.64;1737244;82;21222;-74
2021/08/05 02:10:44;;;;;;;27.32;14.40;;;;;;;25.69;75.11;101279.50;1700842;83;21269;-79
2021/08/05 02:13:24;;;;;;;34.15;15.13;;;;;;;25.67;75.29;101274.73;1732097;82;21226;-78
2021/08/05 02:16:01;;;;;;;28.77;14.43;;;;;;;25.65;75.40;101273.41;1734562;82;21210;-76
2021/08/05 02:18:35;;;;;;;31.95;13.43;;;;;;;25.64;75.55;101275.44;1742511;82;21229;-79
2021/08/05 02:21:10;;;;;;;32.65;15.45;;;;;;;25.68;75.71;101275.58;1720352;82;21275;-79
2021/08/05 02:23:43;;;;;;;26.95;12.98;;;;;;;25.71;75.65;101274.86;1739869;82;21388;-73
2021/08/05 02:26:16;;;;;;;23.85;15.03;;;;;;;25.72;75.70;101277.37;1721038;82;21206;-71
2021/08/05 02:28:51;;;;;;;23.18;15.80;;;;;;;25.72;75.82;101270.86;1747773;82;21171;-72
2021/08/05 02:31:24;;;;;;;30.35;15.08;;;;;;;25.73;76.10;101275.38;1771381;79;21430;-73
2021/08/05 02:33:57;;;;;;;26.60;16.37;;;;;;;25.73;76.56;101273.34;1783502;80;21359;-74
2021/08/05 02:36:30;;;;;;;29.87;17.32;;;;;;;25.73;77.12;101273.95;1783188;80;21461;-74
2021/08/05 02:39:05;;;;;;;31.65;19.62;;;;;;;25.73;77.72;101266.83;1762091;77;21836;-77
2021/08/05 02:41:38;;;;;;;34.00;17.77;;;;;;;25.71;78.20;101269.17;1742989;82;21384;-71
2021/08/05 02:44:11;;;;;;;26.33;17.80;;;;;;;25.71;78.25;101274.86;1742699;82;21320;-70
2021/08/05 02:46:44;;;;;;;39.25;19.48;;;;;;;25.76;78.45;101281.20;1740701;82;21163;-71
2021/08/05 02:49:16;;;;;;;;;;;;;;;25.82;78.38;101284.66;1738856;82;21254;-71
2021/08/05 02:51:51;;;;;;;31.40;18.10;;;;;;;25.90;78.04;101286.65;1742889;82;20257;-83
2021/08/05 02:54:25;;;;;;;32.38;18.37;;;;;;;25.90;77.94;101291.73;1742240;82;21325;-80
2021/08/05 02:56:59;;;;;;;35.28;23.32;;;;;;;25.95;77.61;101287.26;1742239;82;21376;-71
2021/08/05 02:59:32;;;;;;;31.12;17.15;;;;;;;26.01;77.57;101290.70;1741272;82;21340;-76
2021/08/05 03:02:05;;;;;;;27.15;16.73;;;;;;;26.04;77.54;101292.88;1713102;83;21178;-70
2021/08/05 03:04:38;;;;;;;38.70;19.15;;;;;;;26.05;77.44;101289.69;1725297;82;21218;-69
2021/08/05 03:07:11;;;;;;;37.00;24.10;;;;;;;26.11;77.44;101293.98;1732045;82;21305;-71
2021/08/05 03:09:45;;;;;;;40.28;27.37;;;;;;;26.06;77.38;101288.50;1741736;82;21229;-73
2021/08/05 03:12:19;;;;;;;29.07;18.23;;;;;;;26.05;77.29;101294.54;1742887;82;21313;-69
2021/08/05 03:14:51;;;;;;;39.60;26.45;;;;;;;26.10;77.27;101301.45;1742939;82;21368;-78
2021/08/05 03:17:24;;;;;;;42.33;26.17;;;;;;;26.07;76.94;101292.16;1742992;82;21230;-73
2021/08/05 03:19:56;;;;;;;42.73;27.30;;;;;;;26.06;77.11;101295.62;1740817;82;21779;-77
2021/08/05 03:22:29;;;;;;;37.90;27.20;;;;;;;26.12;76.58;101291.95;1742287;82;21372;-74
2021/08/05 03:25:01;;;;;;;37.98;24.77;;;;;;;26.13;76.06;101285.06;1736566;82;22018;-75
2021/08/05 03:27:33;;;;;;;36.97;23.30;;;;;;;26.13;75.77;101277.37;1742009;82;21222;-74
2021/08/05 03:30:07;;;;;;;29.97;21.30;;;;;;;26.15;75.49;101285.57;1724367;82;21273;-74
2021/08/05 03:32:40;;;;;;;27.67;18.23;;;;;;;26.14;75.09;101283.91;1741929;82;21360;-75
2021/08/05 03:35:12;;;;;;;32.57;20.53;;;;;;;26.11;74.96;101286.02;1743016;82;21316;-74
2021/08/05 03:37:45;;;;;;;28.25;19.60;;;;;;;26.11;75.09;101286.02;1744132;79;21324;-69
2021/08/05 03:40:18;;;;;;;28.38;19.20;;;;;;;26.15;75.06;101278.45;1746463;82;21292;-70
2021/08/05 03:42:51;;;;;;;;;;;;;;;26.14;75.43;101279.64;1751621;82;21191;-70
2021/08/05 03:45:23;;;;;;;27.48;19.23;;;;;;;26.17;75.66;101280.34;1733671;82;20253;-71
2021/08/05 03:47:56;;;;;;;25.30;17.73;;;;;;;26.18;75.85;101274.31;1746456;81;21182;-74
2021/08/05 03:50:29;;;;;;;30.97;18.32;;;;;;;26.20;76.19;101279.66;1695242;82;21182;-75
2021/08/05 03:53:02;;;;;;;24.43;17.52;;;;;;;26.18;76.56;101270.03;1736728;82;21296;-71
2021/08/05 03:55:34;;;;;;;26.87;18.73;;;;;;;26.17;76.78;101273.22;1726121;82;21312;-78
2021/08/05 03:58:09;;;;;;;24.98;17.62;;;;;;;26.13;77.08;101275.09;1716122;82;21221;-76
2021/08/05 04:00:41;;;;;;;28.05;17.82;;;;;;;26.13;77.30;101280.22;1715819;82;21812;-75
2021/08/05 04:03:14;;;;;;;26.17;17.27;;;;;;;26.19;77.31;101283.66;1748349;81;21916;-77
2021/08/05 04:05:47;;;;;;;32.30;17.87;;;;;;;26.25;77.46;101278.84;1749344;82;21749;-73
2021/08/05 04:08:20;;;;;;;22.15;17.15;;;;;;;26.30;77.24;101279.20;1746670;82;21316;-73
2021/08/05 04:10:52;;;;;;;;;;;;;;;26.36;76.96;101274.95;1733442;82;21657;-69
2021/08/05 04:13:25;;;;;;;24.90;17.95;;;;;;;26.35;76.87;101281.83;1748319;81;20190;-72
2021/08/05 04:15:58;;;;;;;;;;;;;;;26.31;76.83;101276.01;1733833;81;21877;-71
2021/08/05 04:18:30;;;;;;;25.62;16.57;;;;;;;26.32;76.88;101272.55;1740780;81;20285;-71
2021/08/05 04:21:09;;;;;;;21.10;15.35;;;;;;;26.37;76.81;101273.17;1744350;81;21359;-78
2021/08/05 04:23:42;;;;;;;26.87;16.62;;;;;;;26.45;76.63;101277.94;1747307;81;21142;-69
2021/08/05 04:26:15;;;;;;;23.62;17.05;;;;;;;26.49;76.43;101274.63;1750859;81;21683;-71
2021/08/05 04:28:49;;;;;;;23.02;15.63;;;;;;;26.53;76.46;101273.33;1743577;81;21331;-70
2021/08/05 04:31:22;;;;;;;20.77;14.30;;;;;;;26.48;76.49;101277.25;1748926;82;21323;-72
2021/08/05 04:33:54;;;;;;;27.22;15.95;;;;;;;26.38;76.79;101278.27;1747482;81;21206;-69
2021/08/05 04:36:27;;;;;;;;;;;;;;;26.29;77.18;101276.11;1735167;78;21148;-73
2021/08/05 04:38:59;;;;;;;24.37;14.43;;;;;;;26.21;77.75;101277.86;1794082;80;20182;-73
2021/08/05 04:41:33;;;;;;;19.25;13.58;;;;;;;26.14;77.77;101273.94;1793597;80;21131;-72
2021/08/05 04:44:06;;;;;;;29.77;14.63;;;;;;;26.15;77.96;101271.33;1796935;80;21803;-71
2021/08/05 04:46:39;;;;;;;20.88;13.45;;;;;;;26.13;77.80;101276.52;1793762;80;21677;-71
2021/08/05 04:49:11;;;;;;;15.30;12.47;;;;;;;26.12;77.56;101272.86;1797042;80;21871;-73
2021/08/05 04:51:44;;;;;;;22.60;12.33;;;;;;;26.12;77.50;101277.13;1793478;80;21819;-75
2021/08/05 04:54:16;;;;;;;17.53;12.33;;;;;;;26.13;77.46;101274.52;1795779;80;21156;-77
2021/08/05 04:56:49;;;;;;;15.93;10.63;;;;;;;26.15;77.34;101271.33;1796272;80;21333;-73
2021/08/05 04:59:22;;;;;;;20.25;11.60;;;;;;;26.16;77.00;101264.44;1796962;80;21701;-78
2021/08/05 05:01:54;;;;;;;20.57;11.95;;;;;;;26.16;77.08;101274.41;1795861;80;21194;-71
2021/08/05 05:04:27;;;;;;;14.93;10.53;;;;;;;26.20;77.22;101282.51;1797076;80;21178;-74
2021/08/05 05:07:00;;;;;;;15.05;10.28;;;;;;;26.24;76.74;101283.45;1792855;80;21178;-74
2021/08/05 05:09:33;;;;;;;15.48;10.20;;;;;;;26.18;76.65;101274.31;1788368;80;21286;-77
2021/08/05 05:12:07;;;;;;;12.03;8.87;;;;;;;26.15;77.08;101277.02;1774231;80;21266;-74
2021/08/05 05:14:39;;;;;;;18.27;10.60;;;;;;;26.17;76.91;101271.22;1791899;80;21856;-75
2021/08/05 05:17:12;;;;;;;21.70;10.58;;;;;;;26.20;76.84;101266.84;1796095;80;21143;-72
2021/08/05 05:19:45;;;;;;;17.73;10.03;;;;;;;26.28;77.00;101276.70;1797107;80;21167;-79
2021/08/05 15:47:26;;;;;;;20.57;8.93;;;;;;;27.92;71.68;100860.23;1849742;76;26959;-74
2021/08/05 15:49:58;;;;;;;16.97;8.75;;;;;;;27.88;72.20;100870.76;1798963;78;21363;-74
2021/08/05 15:52:31;;;;;;;15.58;8.15;;;;;;;27.92;72.38;100864.52;1809819;79;21210;-74
2021/08/05 15:55:04;;;;;;;16.77;8.23;;;;;;;27.97;72.85;100859.36;1818864;79;21898;-73
2021/08/05 15:57:37;;;;;;;15.35;7.25;;;;;;;28.05;72.66;100861.16;1819533;79;21213;-75
2021/08/05 16:00:10;;;;;;;13.95;7.37;;;;;;;28.12;72.34;100861.31;1819844;79;21344;-73
2021/08/05 16:02:43;;;;;;;17.98;7.50;;;;;;;28.17;72.15;100854.47;1819849;79;21406;-74
2021/08/05 16:05:19;;;;;;;12.65;6.87;;;;;;;28.20;71.64;100849.45;1819710;79;21315;-74
2021/08/05 16:07:50;;;;;;;17.35;8.20;;;;;;;28.26;71.31;100845.91;1799597;78;21396;-73
2021/08/05 16:10:23;;;;;;;15.32;8.50;;;;;;;28.30;71.29;100839.67;1712745;84;21204;-73
2021/08/05 16:12:56;;;;;;;;;;;;;;;28.31;71.44;100849.91;1714984;84;21190;-74
2021/08/05 16:15:28;;;;;;;20.08;8.45;;;;;;;28.27;71.76;100840.44;1712424;84;20192;-73
2021/08/05 16:18:01;;;;;;;19.45;9.33;;;;;;;28.23;72.16;100836.67;1712639;84;21211;-73
2021/08/05 16:20:34;;;;;;;18.30;8.53;;;;;;;28.22;72.23;100837.88;1712672;84;21345;-75
2021/08/05 16:23:08;;;;;;;11.33;8.47;;;;;;;28.26;72.22;100845.09;1712560;84;21321;-73
2021/08/05 16:25:42;;;;;;;14.25;8.23;;;;;;;28.26;72.70;100834.48;1712464;84;21332;-75
2021/08/05 16:28:16;;;;;;;14.78;7.17;;;;;;;28.24;72.59;100836.89;1712071;83;21340;-74
2021/08/05 16:30:51;;;;;;;17.55;8.13;;;;;;;28.26;72.50;100830.19;1712660;84;21959;-74
2021/08/05 16:33:24;;;;;;;14.30;8.08;;;;;;;28.25;72.92;100831.40;1712563;84;21333;-75
2021/08/05 16:35:58;;;;;;;17.02;8.25;;;;;;;28.21;73.31;100831.95;1711152;84;21349;-73
2021/08/05 16:38:31;;;;;;;17.30;7.67;;;;;;;28.20;73.69;100829.45;1710578;84;21341;-72
2021/08/05 16:41:06;;;;;;;13.53;7.22;;;;;;;28.17;73.87;100825.91;1697353;84;21349;-74
2021/08/05 16:43:40;;;;;;;19.20;7.80;;;;;;;28.19;74.03;100824.95;1709850;79;21463;-73
2021/08/05 16:46:16;;;;;;;21.10;9.58;;;;;;;28.23;73.93;100818.09;1706440;83;21313;-73
2021/08/05 16:48:52;;;;;;;20.15;8.65;;;;;;;28.25;73.98;100829.16;1678827;84;21199;-73
2021/08/05 16:51:25;;;;;;;13.05;7.50;;;;;;;28.21;74.41;100827.66;1657369;85;21388;-74
2021/08/05 16:53:57;;;;;;;17.07;7.03;;;;;;;28.16;74.23;100819.38;1687401;85;21234;-74
2021/08/05 16:56:32;;;;;;;16.35;7.22;;;;;;;28.15;74.33;100816.89;1682177;85;21225;-75
2021/08/05 16:59:07;;;;;;;14.40;7.93;;;;;;;28.13;74.49;100809.30;1679632;84;21468;-73
2021/08/05 17:01:39;;;;;;;17.82;9.43;;;;;;;28.12;74.53;100811.94;1680349;85;21360;-77
2021/08/05 17:04:12;;;;;;;21.07;8.13;;;;;;;28.14;74.53;100811.80;1681512;85;21384;-73
2021/08/05 17:06:45;;;;;;;13.60;7.57;;;;;;;28.11;74.79;100807.41;1682277;85;21732;-74
2021/08/05 17:09:18;;;;;;;10.08;7.87;;;;;;;28.04;75.03;100810.11;1681867;85;21247;-74
2021/08/05 17:11:50;;;;;;;12.95;7.97;;;;;;;28.04;75.12;100805.83;1682042;85;21360;-72
2021/08/05 17:14:24;;;;;;;14.65;8.83;;;;;;;28.02;75.30;100799.09;1681876;85;21266;-72
2021/08/05 17:16:56;;;;;;;13.18;8.65;;;;;;;27.98;75.49;100803.04;1691168;84;21195;-75
2021/08/05 17:19:32;;;;;;;15.20;7.80;;;;;;;27.94;75.63;100795.83;1710302;84;21198;-75
2021/08/05 17:22:05;;;;;;;11.53;8.30;;;;;;;27.94;75.69;100787.88;1688409;84;21319;-70
2021/08/05 17:24:38;;;;;;;16.52;8.40;;;;;;;27.92;75.81;100778.25;1663996;84;21340;-73
2021/08/05 17:27:11;;;;;;;13.83;7.60;;;;;;;27.93;75.89;100781.32;1683555;84;21369;-74
2021/08/05 17:29:44;;;;;;;13.98;8.43;;;;;;;27.93;75.93;100775.61;1681517;84;21428;-72
2021/08/05 17:32:17;;;;;;;11.95;8.10;;;;;;;27.84;75.92;100782.16;1681440;85;21416;-73
2021/08/05 17:34:50;;;;;;;14.33;7.65;;;;;;;27.77;76.15;100773.41;1679166;85;21360;-74
2021/08/05 17:37:22;;;;;;;17.47;9.03;;;;;;;27.71;76.52;100772.01;1681399;85;21348;-76
2021/08/05 17:39:55;;;;;;;;;;;;;;;27.68;76.66;100767.06;1684375;85;21970;-76
2021/08/05 17:42:28;;;;;;;14.03;9.15;;;;;;;27.69;76.55;100767.91;1704344;84;20184;-74
2021/08/05 17:45:01;;;;;;;18.50;9.23;;;;;;;27.69;77.12;100763.00;1674667;83;21889;-74
2021/08/05 17:47:35;;;;;;;13.58;8.10;;;;;;;27.73;77.06;100753.92;1672926;85;21398;-74
2021/08/05 17:50:09;;;;;;;13.13;7.87;;;;;;;27.72;76.92;100752.28;1671207;85;21240;-76
2021/08/05 17:52:43;;;;;;;12.73;7.37;;;;;;;27.69;77.27;100754.44;1677495;84;21670;-74
2021/08/05 17:55:16;;;;;;;18.50;7.80;;;;;;;27.65;77.50;100744.14;1677894;85;21324;-75
2021/08/05 17:57:50;;;;;;;15.88;8.53;;;;;;;27.63;77.83;100751.65;1673644;85;21317;-74
2021/08/05 18:00:23;;;;;;;11.93;8.95;;;;;;;27.61;77.82;100744.66;1678733;84;21333;-75
2021/08/05 18:02:56;;;;;;;22.58;8.28;;;;;;;27.58;78.43;100746.23;1661593;84;21705;-74
2021/08/05 18:05:29;;;;;;;12.82;7.60;;;;;;;27.56;78.58;100747.20;1677757;84;21416;-73
2021/08/05 18:08:02;;;;;;;15.72;8.15;;;;;;;27.52;78.79;100737.73;1674216;84;21270;-75
2021/08/05 18:10:35;;;;;;;;;;;;;;;27.52;79.06;100728.36;1679684;85;21209;-73
2021/08/05 18:13:07;;;;;;;15.45;8.83;;;;;;;27.52;79.12;100729.16;1678445;84;20262;-74
2021/08/05 18:15:41;;;;;;;19.12;8.58;;;;;;;27.52;79.05;100718.37;1678907;85;21357;-72
2021/08/05 18:18:13;;;;;;;24.37;9.73;;;;;;;27.50;79.08;100703.03;1676749;84;21416;-71
2021/08/05 18:20:48;;;;;;;14.53;8.28;;;;;;;27.48;79.19;100700.95;1675103;84;21773;-72
2021/08/05 18:23:21;;;;;;;20.72;8.20;;;;;;;27.43;79.54;100699.19;1676996;85;21352;-72
2021/08/05 18:25:53;;;;;;;15.27;8.13;;;;;;;27.44;79.79;100700.25;1678480;84;21329;-72
2021/08/05 18:28:26;;;;;;;11.18;7.67;;;;;;;27.47;79.58;100698.68;1674749;84;21357;-74
2021/08/05 18:30:58;;;;;;;15.85;7.87;;;;;;;27.48;79.60;100694.62;1677273;84;21407;-74
2021/08/05 18:33:31;;;;;;;13.83;7.80;;;;;;;27.43;79.83;100692.67;1678660;84;21528;-73
2021/08/05 18:36:04;;;;;;;9.33;7.20;;;;;;;27.40;80.28;100680.78;1676375;85;22391;-72
2021/08/05 18:38:36;;;;;;;12.37;7.75;;;;;;;27.39;80.00;100686.27;1702892;84;21182;-75
2021/08/05 18:41:10;;;;;;;11.57;7.30;;;;;;;27.38;80.24;100688.67;1701691;84;21246;-75
2021/08/05 18:43:41;;;;;;;;;;;;;;;27.37;80.35;100690.69;1704789;83;21717;-73
2021/08/05 18:46:14;;;;;;;15.28;10.85;;;;;;;27.36;80.55;100687.62;1682426;84;20304;-74
2021/08/05 18:48:47;;;;;;;25.20;14.95;;;;;;;27.33;80.71;100696.09;1677740;84;21221;-73
2021/08/05 18:51:19;;;;;;;14.90;10.23;;;;;;;27.28;81.13;100700.88;1697849;84;21283;-74
2021/08/05 18:53:52;;;;;;;17.37;9.78;;;;;;;27.32;81.14;100701.58;1678483;84;21649;-74
2021/08/05 18:56:25;;;;;;;17.23;8.97;;;;;;;27.30;81.16;100694.00;1661594;86;21405;-74
2021/08/05 18:58:57;;;;;;;20.85;9.03;;;;;;;27.30;81.27;100689.72;1688088;84;21191;-73
2021/08/05 19:01:30;;;;;;;20.60;9.07;;;;;;;27.30;81.54;100674.03;1671782;86;21341;-74
2021/08/05 19:04:05;;;;;;;12.65;8.98;;;;;;;27.31;82.02;100663.65;1671521;84;21856;-73
2021/08/05 19:06:37;;;;;;;17.82;9.13;;;;;;;27.30;82.22;100659.15;1670783;84;21737;-73
2021/08/05 19:09:11;;;;;;;14.70;8.40;;;;;;;27.33;82.34;100664.71;1670935;84;21282;-72
2021/08/05 19:11:44;;;;;;;;;;;;;;;27.33;82.02;100659.23;1646809;86;21258;-75
2021/08/05 19:14:17;;;;;;;17.12;8.80;;;;;;;27.33;82.25;100653.52;1644303;87;20190;-74
2021/08/05 19:16:50;;;;;;;15.25;9.03;;;;;;;27.33;82.50;100647.01;1667316;86;21729;-73
2021/08/05 19:19:23;;;;;;;18.80;11.20;;;;;;;27.37;82.48;100639.33;1682172;84;21286;-73
2021/08/05 19:21:55;;;;;;;20.17;12.43;;;;;;;27.35;82.70;100630.33;1680362;84;21892;-73
2021/08/05 19:24:28;;;;;;;22.02;10.55;;;;;;;27.36;82.73;100626.27;1667307;84;21207;-76
2021/08/05 19:27:01;;;;;;;19.42;9.18;;;;;;;27.37;83.30;100625.06;1675462;85;21859;-73
2021/08/05 19:29:36;;;;;;;14.90;9.05;;;;;;;27.42;83.46;100616.83;1690548;84;21580;-74
2021/08/05 19:32:09;;;;;;;12.80;8.55;;;;;;;27.43;83.45;100605.64;1679548;85;21724;-73
2021/08/05 19:34:42;;;;;;;13.65;7.50;;;;;;;27.42;83.24;100586.88;1678585;85;21242;-75
2021/08/05 19:37:15;;;;;;;17.17;8.25;;;;;;;27.36;83.89;100586.94;1675567;85;21317;-74
2021/08/05 19:39:50;;;;;;;18.82;8.85;;;;;;;27.34;84.06;100583.84;1679581;85;21329;-74
2021/08/05 19:42:23;;;;;;;13.00;9.13;;;;;;;27.33;84.02;100587.90;1678028;84;21202;-75
2021/08/05 19:44:57;;;;;;;16.87;7.40;;;;;;;27.34;84.39;100575.90;1685859;84;21344;-72
2021/08/05 19:47:29;;;;;;;16.15;7.92;;;;;;;27.37;84.00;100567.19;1724787;82;21380;-73
2021/08/05 19:50:04;;;;;;;14.60;7.40;;;;;;;27.37;83.96;100575.75;1701058;84;21266;-71
2021/08/05 19:52:38;;;;;;;14.85;7.53;;;;;;;27.38;83.51;100604.73;1697767;84;21243;-74
2021/08/05 19:55:12;;;;;;;13.98;9.95;;;;;;;27.39;83.61;100602.71;1698958;83;21454;-73
2021/08/05 19:57:44;;;;;;;14.93;9.70;;;;;;;27.39;83.75;100602.09;1696018;84;21171;-77
2021/08/05 20:00:18;;;;;;;13.68;8.00;;;;;;;27.40;83.45;100618.00;1701745;84;21198;-78
2021/08/05 20:02:52;;;;;;;15.93;7.28;;;;;;;27.43;83.34;100621.33;1697121;84;21202;-76
2021/08/05 20:05:27;;;;;;;12.30;8.40;;;;;;;27.45;83.22;100616.28;1701103;84;21225;-77
2021/08/05 20:07:59;;;;;;;17.07;8.08;;;;;;;27.49;82.85;100609.22;1694579;83;21720;-78
2021/08/05 20:10:33;;;;;;;11.88;7.15;;;;;;;27.53;82.64;100609.52;1695703;84;21198;-75
2021/08/05 20:13:06;;;;;;;21.20;8.23;;;;;;;27.55;82.34;100607.72;1701913;84;21190;-70
2021/08/05 20:15:39;;;;;;;12.70;8.28;;;;;;;27.51;82.25;100611.93;1701531;83;21729;-71
2021/08/05 20:18:15;;;;;;;11.85;7.87;;;;;;;27.51;82.29;100606.22;1674102;86;21756;-78
2021/08/05 20:20:49;;;;;;;13.80;7.80;;;;;;;27.52;82.29;100599.92;1667130;86;21262;-78
2021/08/05 20:23:23;;;;;;;12.18;7.83;;;;;;;27.48;82.30;100606.15;1662435;85;21250;-77
2021/08/05 20:25:55;;;;;;;11.90;7.65;;;;;;;27.46;82.37;100608.56;1676548;85;21847;-87
2021/08/05 20:28:30;;;;;;;15.40;6.53;;;;;;;27.47;82.35;100611.64;1694013;85;21412;-74
2021/08/05 20:31:03;;;;;;;18.50;6.70;;;;;;;27.47;82.35;100608.78;1694559;84;21357;-75
2021/08/05 20:33:36;;;;;;;12.45;7.08;;;;;;;27.51;82.33;100596.85;1695254;85;21199;-77
2021/08/05 20:36:11;;;;;;;10.50;7.37;;;;;;;27.49;82.21;100584.97;1697848;84;21321;-77
2021/08/05 20:38:43;;;;;;;15.90;6.90;;;;;;;27.50;82.18;100596.02;1701191;84;21188;-76
2021/08/05 20:41:17;;;;;;;16.62;6.85;;;;;;;27.48;82.12;100604.72;1695946;84;21231;-74
2021/08/05 20:43:49;;;;;;;20.80;7.20;;;;;;;27.48;82.02;100600.44;1693711;84;21337;-74
2021/08/05 20:46:22;;;;;;;13.20;7.62;;;;;;;27.43;82.13;100579.95;1708225;83;21252;-75
2021/08/05 20:48:55;;;;;;;14.53;6.92;;;;;;;27.39;82.28;100574.98;1708134;83;21221;-74
2021/08/05 20:51:28;;;;;;;8.38;6.78;;;;;;;27.35;82.54;100578.97;1707904;84;21348;-73
2021/08/05 20:54:02;;;;;;;14.68;7.33;;;;;;;27.31;82.73;100570.92;1696793;84;21182;-74
2021/08/05 20:56:35;;;;;;;9.28;6.92;;;;;;;27.27;82.95;100570.64;1655532;85;21240;-75
2021/08/05 20:59:08;;;;;;;15.58;6.95;;;;;;;27.24;83.33;100562.84;1679612;85;21372;-74
2021/08/05 21:01:42;;;;;;;16.57;8.20;;;;;;;27.26;83.34;100559.81;1705645;84;21871;-75
2021/08/05 21:04:15;;;;;;;12.35;7.83;;;;;;;27.30;83.12;100554.20;1700329;84;21336;-74
2021/08/05 21:06:48;;;;;;;25.90;17.02;;;;;;;27.35;82.91;100551.87;1679467;85;21770;-77
2021/08/05 21:09:21;;;;;;;32.85;21.70;;;;;;;27.38;83.02;100540.31;1679501;85;21340;-76
2021/08/05 21:11:54;;;;;;;26.30;16.42;;;;;;;27.39;82.99;100536.47;1679430;85;21351;-77
2021/08/05 21:14:27;;;;;;;;;;;;;;;27.40;83.02;100544.44;1679782;85;21171;-74
2021/08/05 21:16:59;;;;;;;27.80;12.20;;;;;;;27.38;83.12;100539.09;1679368;85;20598;-74
2021/08/05 21:19:33;;;;;;;12.90;7.72;;;;;;;27.37;83.11;100545.80;1679426;85;21198;-73
2021/08/05 21:22:07;;;;;;;16.40;7.17;;;;;;;27.38;83.04;100566.20;1678853;85;21317;-77
2021/08/05 21:24:40;;;;;;;12.00;7.08;;;;;;;27.41;82.90;100563.20;1678274;85;21321;-77
2021/08/05 21:27:12;;;;;;;14.10;7.37;;;;;;;27.42;82.77;100564.04;1683459;78;21354;-76
2021/08/05 21:29:45;;;;;;;11.57;6.43;;;;;;;27.43;82.90;100560.78;1723906;82;21293;-74
2021/08/05 21:32:19;;;;;;;12.43;7.10;;;;;;;27.46;82.85;100552.92;1717558;83;21352;-74
2021/08/05 21:34:51;;;;;;;23.75;7.78;;;;;;;27.47;82.62;100547.42;1747633;82;21338;-73
2021/08/05 21:37:24;;;;;;;16.48;6.58;;;;;;;27.49;82.44;100543.59;1690849;84;21399;-73
2021/08/05 21:39:56;;;;;;;13.25;8.20;;;;;;;27.50;82.36;100546.06;1689858;85;21205;-76
2021/08/05 21:42:29;;;;;;;12.58;7.55;;;;;;;27.51;82.30;100540.58;1690740;83;21362;-74
2021/08/05 21:45:02;;;;;;;16.32;7.55;;;;;;;27.50;82.49;100549.52;1703810;81;21930;-75
2021/08/05 21:47:35;;;;;;;13.40;7.40;;;;;;;27.48;82.59;100551.34;1715447;83;21805;-74
2021/08/05 21:50:09;;;;;;;19.95;7.75;;;;;;;27.46;82.58;100552.30;1716882;81;21262;-75
2021/08/05 21:52:42;;;;;;;10.60;6.92;;;;;;;27.47;82.54;100550.28;1745006;81;21170;-74
2021/08/05 21:55:15;;;;;;;15.33;7.73;;;;;;;27.51;82.68;100559.13;1742036;81;21221;-74
2021/08/05 21:57:47;;;;;;;18.25;8.78;;;;;;;27.55;82.58;100546.36;1736082;81;21186;-78
2021/08/05 22:00:21;;;;;;;20.37;8.43;;;;;;;27.52;82.67;100547.94;1736454;81;21864;-78
2021/08/05 22:02:54;;;;;;;15.77;8.00;;;;;;;27.48;83.00;100538.28;1757175;81;21332;-80
2021/08/05 22:05:27;;;;;;;17.80;7.37;;;;;;;27.44;83.25;100537.59;1731243;81;21302;-75
2021/08/05 22:07:59;;;;;;;14.05;7.97;;;;;;;27.42;83.48;100526.95;1754809;81;21938;-75
2021/08/05 22:10:32;;;;;;;13.83;7.27;;;;;;;27.40;83.48;100533.83;1745772;81;21776;-74
2021/08/05 22:13:04;;;;;;;12.00;7.60;;;;;;;27.37;83.68;100541.52;1733412;78;21607;-74